Airfield :
LOGIN :

Register | Disclaimer

   EN    FR    IT 

 










Legend :    VFR   Marginal VFR   IFR   Intensive IFR   Very Intensive IFR
Visi :
Ceiling :
>= 8 km
>= 3000ft
5 to 8 km
1000 to 3000 ft
1500m to 5 km
500 to 1000 ft
800 to 1500m
200 to 500 ft
< 800m
< 200 ft
Symbols :   Thunderstorms  Fog  Heavy snow  Heavy precipitations  Wind > 20 kt
SIGMETs :     Misc.  Thunderstorms  Icing  Turbulence  Mountain Waves  Volcanic Ashes







- Airport Elevation : 499 ft
- IATA code : TLS
- Download approach charts


LFBO - Toulouse / Blagnac

CURRENT METAR :
  • 182100Z AUTO VRB02KT 9999 4300 NSC 03/01 Q1024 BECMG 3000 BR

EXPIRED METARs :
  • 182030Z AUTO 33002KT 9000 NSC 05/04 Q1024 BECMG 3000 BR
  • 182000Z AUTO 15001KT 8000 3600 NSC 04/03 Q1024 NOSIG
  • 181930Z AUTO 00000KT 9999 4500 NSC 04/02 Q1024 NOSIG
  • 181900Z AUTO VRB01KT 9000 NSC 05/03 Q1024 NOSIG
  • 181830Z AUTO VRB01KT 9000 NSC 05/03 Q1024 NOSIG

TAF TAF LFBO
Valid from the 18 at 18:00 until the 20 at 00:00 UTC


181700Z 1818/1924 VRB02KT CAVOK
BECMG 1822/1824 3000 BR
BECMG 1900/1902 0800 FG VV///
TEMPO 1902/1909 0300 FG VV///
BECMG 1909/1911 3000 BR OVC004
BECMG 1911/1914 CAVOK
ATIS : +33 5 62 74 66 36
No reported NOTAMs for that airfield.



MET'MAP, your aeronautical weather chart ! - Copyright ORBIFLY December 2007 - Disclaimer

ORBIFLY MET'MAP TEAM :

Programming & Development : Alexandra Zaïnal
Concept & Development : Baudouin d'Aumeries
Co-Development & Prog : Marc-Olivier Méhu
Technical & hardware support : Manuel Goepfert

Contact : metmap@orbifly.com




SOURCES & CREDITS :

   NOAA